createdAt,value
2022-12-17T00:00:50.319Z,44.93
2022-12-17T00:03:35.920Z,46.80
2022-12-17T00:06:21.204Z,46.50
2022-12-17T00:09:06.380Z,46.50
2022-12-17T00:11:51.504Z,44.80
2022-12-17T00:14:41.518Z,48.10
2022-12-17T00:17:26.549Z,47.63
2022-12-17T00:20:11.304Z,50.17
2022-12-17T00:22:55.974Z,45.47
2022-12-17T00:25:42.660Z,47.40
2022-12-17T00:28:31.000Z,43.93
2022-12-17T00:31:16.091Z,50.63
2022-12-17T00:34:01.096Z,44.10
2022-12-17T00:36:45.964Z,45.17
2022-12-17T00:39:30.908Z,44.53
2022-12-17T00:42:15.966Z,48.40
2022-12-17T00:45:01.002Z,55.67
2022-12-17T00:47:46.152Z,54.10
2022-12-17T00:50:31.271Z,46.60
2022-12-17T00:53:16.266Z,47.10
2022-12-17T00:56:08.834Z,49.67
2022-12-17T00:58:54.251Z,48.67
2022-12-17T01:01:39.479Z,52.23
2022-12-17T01:04:24.966Z,47.40
2022-12-17T01:07:10.000Z,45.43
2022-12-17T01:09:55.243Z,45.63
2022-12-17T01:12:41.077Z,49.37
2022-12-17T01:15:26.346Z,47.70
2022-12-17T01:18:11.367Z,44.20
2022-12-17T01:20:56.127Z,43.93
2022-12-17T01:23:41.496Z,48.57
2022-12-17T01:26:34.243Z,49.40
2022-12-17T01:29:19.166Z,44.40
2022-12-17T01:32:04.367Z,41.47
2022-12-17T01:34:49.528Z,45.10
2022-12-17T01:37:34.300Z,46.00
2022-12-17T01:40:19.453Z,43.97
2022-12-17T01:43:05.037Z,46.23
2022-12-17T01:46:08.441Z,44.33
2022-12-17T01:49:03.136Z,47.73
2022-12-17T01:51:49.799Z,43.43
2022-12-17T01:54:35.877Z,43.90
2022-12-17T01:57:21.434Z,50.37
2022-12-17T02:00:15.560Z,45.87
2022-12-17T02:03:01.324Z,44.43
2022-12-17T02:05:52.042Z,42.83
2022-12-17T02:09:03.331Z,42.73
2022-12-17T02:12:20.318Z,47.83
2022-12-17T02:15:12.017Z,45.13
2022-12-17T02:18:04.696Z,45.27
2022-12-17T02:20:58.442Z,46.47
2022-12-17T02:24:07.986Z,39.37
2022-12-17T02:27:15.547Z,42.40
2022-12-17T02:30:02.682Z,44.13
2022-12-17T02:32:48.244Z,38.20
2022-12-17T02:35:48.091Z,42.47
2022-12-17T02:38:41.492Z,44.13
2022-12-17T02:41:29.202Z,44.13
2022-12-17T02:44:15.010Z,43.00
2022-12-17T02:47:00.659Z,41.40
2022-12-17T02:49:45.679Z,42.07
2022-12-17T02:52:34.900Z,38.33
2022-12-17T02:55:20.746Z,47.83
2022-12-17T02:58:05.876Z,41.43
2022-12-17T03:00:50.678Z,40.37
2022-12-17T03:03:36.405Z,43.77
2022-12-17T03:06:21.838Z,51.63
2022-12-17T03:09:06.940Z,43.80
2022-12-17T03:11:51.850Z,45.17
2022-12-17T03:14:36.964Z,41.17
2022-12-17T03:17:21.761Z,43.77
2022-12-17T03:20:06.765Z,41.50
2022-12-17T03:22:51.794Z,38.97
2022-12-17T03:25:36.862Z,41.87
2022-12-17T03:28:27.185Z,38.87
2022-12-17T03:31:12.328Z,41.97
2022-12-17T03:33:57.444Z,39.43
2022-12-17T03:36:42.526Z,42.57
2022-12-17T03:39:27.229Z,38.03
2022-12-17T03:42:12.136Z,41.20
2022-12-17T03:44:57.159Z,41.00
2022-12-17T03:47:42.250Z,39.07
2022-12-17T03:50:27.403Z,41.10
2022-12-17T03:53:12.415Z,47.73
2022-12-17T03:55:57.268Z,46.43
2022-12-17T03:58:42.447Z,38.83
2022-12-17T04:01:27.722Z,43.50
2022-12-17T04:04:12.653Z,40.87
2022-12-17T04:07:11.273Z,46.17
2022-12-17T04:09:56.069Z,38.47
2022-12-17T04:12:41.299Z,40.97
2022-12-17T04:15:26.945Z,36.50
2022-12-17T04:18:11.804Z,40.60
2022-12-17T04:20:56.827Z,37.10
2022-12-17T04:23:42.089Z,45.33
2022-12-17T04:26:26.955Z,45.23
2022-12-17T04:29:11.736Z,41.30
2022-12-17T04:31:56.690Z,41.37
2022-12-17T04:34:41.458Z,38.27
2022-12-17T04:37:26.496Z,37.50
2022-12-17T04:40:11.649Z,36.23
2022-12-17T04:42:56.752Z,44.90
2022-12-17T04:45:41.860Z,45.23
2022-12-17T04:48:27.952Z,43.00
2022-12-17T04:51:13.334Z,38.27
2022-12-17T04:53:58.000Z,46.13
2022-12-17T04:56:44.103Z,38.60
2022-12-17T04:59:29.246Z,43.17
2022-12-17T05:02:14.398Z,40.50
2022-12-17T05:04:59.640Z,40.73
2022-12-17T05:07:44.575Z,42.13
2022-12-17T05:10:29.578Z,43.13
2022-12-17T05:13:19.199Z,45.03
2022-12-17T05:16:04.708Z,59.93
2022-12-17T05:18:50.079Z,51.17
2022-12-17T05:21:35.751Z,53.27
2022-12-17T05:24:20.856Z,58.67
2022-12-17T05:27:06.493Z,57.40
2022-12-17T05:29:51.552Z,58.37
2022-12-17T05:32:36.545Z,58.97
2022-12-17T05:35:21.248Z,55.53
2022-12-17T05:38:05.993Z,47.43
2022-12-17T05:40:51.110Z,58.00
2022-12-17T05:43:36.311Z,54.20
2022-12-17T05:46:21.866Z,57.27
2022-12-17T05:49:06.926Z,53.50
2022-12-17T05:51:51.944Z,62.73
2022-12-17T05:54:36.901Z,54.83
2022-12-17T05:57:22.013Z,61.57
2022-12-17T06:00:07.117Z,59.07
2022-12-17T06:02:52.295Z,65.23
2022-12-17T06:05:37.593Z,72.40
2022-12-17T06:08:26.593Z,61.60
2022-12-17T06:11:12.091Z,64.40
2022-12-17T06:13:57.264Z,72.67
2022-12-17T06:16:42.131Z,61.73
2022-12-17T06:19:26.952Z,64.97
2022-12-17T06:22:12.148Z,59.00
2022-12-17T06:24:57.276Z,59.93
2022-12-17T06:27:42.241Z,61.70
2022-12-17T06:30:27.896Z,63.10
2022-12-17T06:33:25.535Z,62.70
2022-12-17T06:36:18.121Z,65.23
2022-12-17T06:39:06.471Z,69.57
2022-12-17T06:41:51.509Z,70.27
2022-12-17T06:44:37.361Z,67.27
2022-12-17T06:47:22.370Z,74.50
2022-12-17T06:50:07.207Z,72.40
2022-12-17T06:52:51.997Z,65.40
2022-12-17T06:55:37.134Z,65.23
2022-12-17T06:58:21.950Z,59.40
2022-12-17T07:01:07.137Z,66.03
2022-12-17T07:03:52.132Z,63.93
2022-12-17T07:06:37.071Z,70.07
2022-12-17T07:09:22.177Z,71.87
2022-12-17T07:12:07.008Z,68.90
2022-12-17T07:14:52.189Z,66.20
2022-12-17T07:17:37.439Z,68.40
2022-12-17T07:20:22.658Z,63.67
2022-12-17T07:23:07.761Z,65.80
2022-12-17T07:25:52.881Z,59.83
2022-12-17T07:28:38.948Z,63.63
2022-12-17T07:31:23.948Z,63.60
2022-12-17T07:34:09.210Z,70.43
2022-12-17T07:36:55.079Z,69.23
2022-12-17T07:39:39.979Z,69.17
2022-12-17T07:42:24.749Z,67.40
2022-12-17T07:45:09.866Z,72.40
2022-12-17T07:47:54.681Z,71.67
2022-12-17T07:50:39.904Z,74.50
2022-12-17T07:53:28.285Z,82.97
2022-12-17T07:56:13.338Z,66.80
2022-12-17T07:58:58.344Z,66.27
2022-12-17T08:01:43.934Z,72.27
2022-12-17T08:04:29.117Z,70.03
2022-12-17T08:07:34.171Z,73.40
2022-12-17T08:10:19.311Z,66.77
2022-12-17T08:13:18.543Z,70.90
2022-12-17T08:16:04.202Z,73.03
2022-12-17T08:18:49.114Z,74.00
2022-12-17T08:21:34.499Z,64.17
2022-12-17T08:24:19.487Z,66.40
2022-12-17T08:27:04.657Z,62.20
2022-12-17T08:30:09.344Z,63.37
2022-12-17T08:32:54.269Z,60.97
2022-12-17T08:35:46.884Z,71.03
2022-12-17T08:38:31.924Z,68.37
2022-12-17T08:41:26.647Z,64.87
2022-12-17T08:44:11.614Z,67.27
2022-12-17T08:46:56.593Z,65.87
2022-12-17T08:49:41.754Z,66.33
2022-12-17T08:52:26.634Z,66.97
2022-12-17T08:55:11.569Z,74.57
2022-12-17T08:57:56.530Z,76.50
2022-12-17T09:00:41.610Z,71.23
2022-12-17T09:03:27.548Z,74.70
2022-12-17T09:06:12.585Z,80.20
2022-12-17T09:08:57.727Z,74.97
2022-12-17T09:11:42.570Z,77.80
2022-12-17T09:14:27.520Z,76.23
2022-12-17T09:17:12.248Z,73.43
2022-12-17T09:19:57.445Z,67.77
2022-12-17T09:22:42.484Z,64.47
2022-12-17T09:25:27.572Z,64.03
2022-12-17T09:28:12.857Z,61.77
2022-12-17T09:30:58.000Z,58.00
2022-12-17T09:33:42.994Z,58.80
2022-12-17T09:36:27.993Z,60.00
2022-12-17T09:39:13.063Z,57.80
2022-12-17T09:42:04.324Z,51.37
2022-12-17T09:45:29.745Z,56.87
2022-12-17T09:48:32.595Z,48.03
2022-12-17T09:51:17.705Z,56.13
2022-12-17T09:54:05.120Z,51.13
2022-12-17T09:56:51.760Z,57.87
2022-12-17T09:59:54.769Z,56.33
2022-12-17T10:02:43.971Z,56.33
2022-12-17T10:05:34.655Z,49.43
2022-12-17T10:08:19.857Z,55.93
2022-12-17T10:11:05.401Z,56.10
2022-12-17T10:13:50.516Z,57.90
2022-12-17T10:16:44.967Z,51.93
2022-12-17T10:19:33.513Z,55.77
2022-12-17T10:22:32.236Z,50.33
2022-12-17T10:25:24.431Z,53.50
2022-12-17T10:28:09.519Z,54.57
2022-12-17T10:30:55.351Z,61.20
2022-12-17T10:33:40.476Z,59.20
2022-12-17T10:36:39.183Z,60.97
2022-12-17T10:39:25.380Z,58.27
2022-12-17T10:42:10.601Z,56.63
2022-12-17T10:44:56.729Z,57.73
2022-12-17T10:47:46.019Z,63.97
2022-12-17T10:50:36.082Z,60.03
2022-12-17T10:53:22.882Z,57.73
2022-12-17T10:56:16.994Z,52.40
2022-12-17T10:59:07.962Z,60.40
2022-12-17T11:01:53.667Z,61.30
2022-12-17T11:04:42.865Z,55.37
2022-12-17T11:07:33.108Z,62.33
2022-12-17T11:10:19.705Z,58.57
2022-12-17T11:13:18.453Z,58.37
2022-12-17T11:16:11.672Z,65.07
2022-12-17T11:19:09.186Z,58.50
2022-12-17T11:21:59.028Z,65.60
2022-12-17T11:24:46.566Z,64.70
2022-12-17T11:27:37.053Z,63.53
2022-12-17T11:30:31.002Z,68.00
2022-12-17T11:33:36.842Z,58.50
2022-12-17T11:36:38.524Z,58.93
2022-12-17T11:39:27.301Z,65.87
2022-12-17T11:42:16.546Z,63.20
2022-12-17T11:45:40.246Z,66.23
2022-12-17T11:48:36.202Z,62.17
2022-12-17T11:51:27.919Z,58.77
2022-12-17T11:54:22.859Z,60.00
2022-12-17T11:57:32.934Z,61.53
2022-12-17T12:00:34.297Z,55.17
2022-12-17T12:03:58.026Z,59.17
2022-12-17T12:06:57.177Z,55.10
2022-12-17T12:10:18.055Z,63.53
2022-12-17T12:13:19.933Z,61.40
2022-12-17T12:16:30.403Z,58.50
2022-12-17T12:19:43.709Z,60.50
2022-12-17T12:22:43.990Z,58.73
2022-12-17T12:25:44.363Z,56.80
2022-12-17T12:28:37.491Z,58.73
2022-12-17T12:31:35.103Z,57.33
2022-12-17T12:34:24.674Z,59.23
2022-12-17T12:37:10.029Z,62.33
2022-12-17T12:40:20.398Z,61.33
2022-12-17T12:43:15.005Z,60.93
2022-12-17T12:46:14.755Z,60.07
2022-12-17T12:49:28.190Z,57.63
2022-12-17T12:52:14.522Z,57.73
2022-12-17T12:55:05.811Z,59.17
2022-12-17T12:57:53.196Z,55.03
2022-12-17T13:00:45.959Z,53.93
2022-12-17T13:03:50.200Z,56.73
2022-12-17T13:06:41.732Z,57.07
2022-12-17T13:09:30.898Z,58.10
2022-12-17T13:12:04.959Z,64.40
2022-12-17T13:14:59.238Z,65.93
2022-12-17T13:17:30.842Z,58.77
2022-12-17T13:19:57.173Z,55.67
2022-12-17T13:22:24.500Z,57.63
2022-12-17T13:24:53.087Z,56.47
2022-12-17T13:27:30.183Z,58.17
2022-12-17T13:29:57.222Z,65.90
2022-12-17T13:32:29.205Z,57.27
2022-12-17T13:35:29.004Z,59.33
2022-12-17T13:38:14.344Z,56.67
2022-12-17T13:40:48.749Z,59.37
2022-12-17T13:43:20.770Z,59.80
2022-12-17T13:45:47.407Z,56.90
2022-12-17T13:48:21.303Z,52.93
2022-12-17T13:50:55.733Z,62.33
2022-12-17T13:53:22.179Z,61.33
2022-12-17T13:55:53.480Z,57.20
2022-12-17T13:58:24.508Z,57.07
2022-12-17T14:00:51.284Z,60.37
2022-12-17T14:03:37.076Z,58.27
2022-12-17T14:06:09.725Z,56.80
2022-12-17T14:08:36.751Z,51.90
2022-12-17T14:11:22.064Z,53.97
2022-12-17T14:13:58.686Z,53.60
2022-12-17T14:16:25.119Z,53.53
2022-12-17T14:18:54.238Z,55.83
2022-12-17T14:21:25.739Z,52.60
2022-12-17T14:23:52.603Z,55.77
2022-12-17T14:26:19.030Z,54.37
2022-12-17T14:28:50.231Z,58.90
2022-12-17T14:31:27.127Z,57.77
2022-12-17T14:34:08.772Z,53.43
2022-12-17T14:36:37.854Z,57.03
2022-12-17T14:39:27.039Z,54.83
2022-12-17T14:42:15.234Z,56.20
2022-12-17T14:44:53.611Z,60.30
2022-12-17T14:47:22.452Z,55.03
2022-12-17T14:50:10.205Z,59.20
2022-12-17T14:52:50.718Z,58.17
2022-12-17T14:55:55.874Z,58.47
2022-12-17T14:58:23.919Z,60.83
2022-12-17T15:00:53.638Z,53.03
2022-12-17T15:03:23.061Z,61.43
2022-12-17T15:05:56.857Z,55.37
2022-12-17T15:08:23.435Z,54.77
2022-12-17T15:10:50.050Z,54.30
2022-12-17T15:13:16.475Z,57.00
2022-12-17T15:15:43.022Z,56.13
2022-12-17T15:18:09.573Z,60.27
2022-12-17T15:20:36.112Z,64.17
2022-12-17T15:23:02.605Z,64.03
2022-12-17T15:25:29.224Z,66.93
2022-12-17T15:27:55.701Z,61.03
2022-12-17T15:30:22.139Z,60.07
2022-12-17T15:32:48.619Z,67.10
2022-12-17T15:35:15.209Z,68.87
2022-12-17T15:37:41.670Z,63.03
2022-12-17T15:40:10.748Z,68.83
2022-12-17T15:42:56.824Z,68.53
2022-12-17T15:45:25.124Z,70.27
2022-12-17T15:47:51.522Z,69.77
2022-12-17T15:50:17.949Z,62.60
2022-12-17T15:52:44.383Z,59.53
2022-12-17T15:55:14.041Z,60.53
2022-12-17T15:57:40.522Z,63.67
2022-12-17T16:00:07.950Z,64.83
2022-12-17T16:02:34.652Z,69.40
2022-12-17T16:05:01.184Z,70.10
2022-12-17T16:07:27.564Z,72.30
2022-12-17T16:09:53.995Z,70.87
2022-12-17T16:12:20.448Z,68.70
2022-12-17T16:14:46.976Z,67.17
2022-12-17T16:17:13.418Z,67.53
2022-12-17T16:19:39.905Z,68.90
2022-12-17T16:22:06.747Z,63.77
2022-12-17T16:24:33.160Z,66.03
2022-12-17T16:27:17.485Z,67.17
2022-12-17T16:29:44.366Z,64.77
2022-12-17T16:32:10.763Z,65.83
2022-12-17T16:34:37.152Z,66.93
2022-12-17T16:37:03.637Z,68.50
2022-12-17T16:39:30.105Z,64.23
2022-12-17T16:41:56.888Z,66.97
2022-12-17T16:44:23.454Z,74.10
2022-12-17T16:46:50.057Z,69.63
2022-12-17T16:49:19.230Z,71.57
2022-12-17T16:51:46.933Z,76.60
2022-12-17T16:54:15.840Z,73.03
2022-12-17T16:56:43.039Z,72.80
2022-12-17T16:59:10.581Z,73.93
2022-12-17T17:01:38.361Z,71.27
2022-12-17T17:04:06.756Z,64.13
2022-12-17T17:06:34.253Z,67.27
2022-12-17T17:09:04.135Z,69.57
2022-12-17T17:11:30.558Z,72.57
2022-12-17T17:13:57.125Z,67.33
2022-12-17T17:16:25.240Z,68.63
2022-12-17T17:18:53.541Z,70.57
2022-12-17T17:21:19.886Z,68.27
2022-12-17T17:23:47.953Z,66.77
2022-12-17T17:26:14.864Z,72.03
2022-12-17T17:28:42.059Z,60.97
2022-12-17T17:31:11.959Z,61.00
2022-12-17T17:33:42.966Z,69.37
2022-12-17T17:36:12.313Z,57.67
2022-12-17T17:38:40.394Z,63.53
2022-12-17T17:41:09.635Z,71.50
2022-12-17T17:43:36.132Z,63.07
2022-12-17T17:46:11.471Z,58.70
2022-12-17T17:48:38.411Z,61.03
2022-12-17T17:51:26.084Z,58.70
2022-12-17T17:54:10.975Z,62.80
2022-12-17T17:56:41.726Z,62.73
2022-12-17T17:59:11.060Z,61.83
2022-12-17T18:01:40.451Z,63.87
2022-12-17T18:04:10.090Z,60.37
2022-12-17T18:06:37.593Z,61.30
2022-12-17T18:09:04.532Z,62.13
2022-12-17T18:11:31.615Z,64.60
2022-12-17T18:13:58.904Z,66.80
2022-12-17T18:16:32.612Z,60.37
2022-12-17T18:19:00.744Z,58.97
2022-12-17T18:21:28.661Z,63.30
2022-12-17T18:24:01.085Z,65.87
2022-12-17T18:26:29.947Z,62.63
2022-12-17T18:28:58.436Z,67.07
2022-12-17T18:31:26.413Z,67.30
2022-12-17T18:33:58.540Z,65.47
2022-12-17T18:36:34.164Z,62.10
2022-12-17T18:39:03.730Z,63.73
2022-12-17T18:41:48.934Z,66.87
2022-12-17T18:44:16.240Z,56.23
2022-12-17T18:46:43.116Z,58.77
2022-12-17T18:49:11.571Z,61.03
2022-12-17T18:51:40.372Z,58.60
2022-12-17T18:54:08.474Z,56.93
2022-12-17T18:56:59.848Z,57.83
2022-12-17T18:59:28.708Z,57.03
2022-12-17T19:01:58.604Z,55.90
2022-12-17T19:04:25.618Z,47.87
2022-12-17T19:06:53.609Z,59.33
2022-12-17T19:09:34.330Z,63.43
2022-12-17T19:12:01.344Z,64.33
2022-12-17T19:14:27.912Z,59.87
2022-12-17T19:16:55.651Z,61.00
2022-12-17T19:19:23.015Z,60.30
2022-12-17T19:21:51.871Z,60.27
2022-12-17T19:24:19.243Z,53.63
2022-12-17T19:26:45.884Z,54.80
2022-12-17T19:29:13.678Z,54.60
2022-12-17T19:31:40.566Z,49.70
2022-12-17T19:34:12.689Z,61.37
2022-12-17T19:36:39.887Z,58.03
2022-12-17T19:39:08.553Z,54.20
2022-12-17T19:41:35.153Z,64.97
2022-12-17T19:44:04.484Z,58.13
2022-12-17T19:46:32.351Z,53.97
2022-12-17T19:48:58.819Z,59.90
2022-12-17T19:51:27.897Z,48.63
2022-12-17T19:53:55.146Z,55.67
2022-12-17T19:56:26.358Z,56.23
2022-12-17T19:58:55.343Z,59.97
2022-12-17T20:01:24.838Z,52.10
2022-12-17T20:03:52.058Z,53.07
2022-12-17T20:06:20.571Z,55.83
2022-12-17T20:08:47.089Z,54.87
2022-12-17T20:11:36.120Z,64.30
2022-12-17T20:14:20.658Z,49.40
2022-12-17T20:16:52.748Z,58.57
2022-12-17T20:19:21.752Z,59.27
2022-12-17T20:21:48.715Z,56.37
2022-12-17T20:24:16.627Z,67.50
2022-12-17T20:26:43.814Z,55.87
2022-12-17T20:29:10.508Z,57.80
2022-12-17T20:31:37.068Z,62.67
2022-12-17T20:34:04.710Z,63.60
2022-12-17T20:36:31.194Z,61.87
2022-12-17T20:38:57.771Z,59.43
2022-12-17T20:41:26.612Z,50.63
2022-12-17T20:43:53.748Z,49.77
2022-12-17T20:46:21.597Z,58.93
2022-12-17T20:48:48.071Z,57.47
2022-12-17T20:51:17.346Z,60.43
2022-12-17T20:53:44.794Z,49.67
2022-12-17T20:56:14.336Z,56.80
2022-12-17T20:58:41.856Z,60.03
2022-12-17T21:01:16.811Z,56.93
2022-12-17T21:03:43.459Z,56.27
2022-12-17T21:06:13.069Z,56.63
2022-12-17T21:08:44.797Z,53.80
2022-12-17T21:11:15.591Z,51.90
2022-12-17T21:13:42.422Z,51.13
2022-12-17T21:16:29.037Z,52.93
2022-12-17T21:18:56.514Z,51.83
2022-12-17T21:21:25.785Z,56.67
2022-12-17T21:23:52.224Z,57.53
2022-12-17T21:26:24.348Z,56.27
2022-12-17T21:28:52.592Z,57.80
2022-12-17T21:31:25.422Z,57.00
2022-12-17T21:33:55.510Z,57.37
2022-12-17T21:36:23.409Z,59.07
2022-12-17T21:38:51.204Z,57.60
2022-12-17T21:41:20.118Z,53.47
2022-12-17T21:43:46.568Z,54.57
2022-12-17T21:46:13.875Z,52.77
2022-12-17T21:48:42.645Z,53.77
2022-12-17T21:51:12.552Z,53.37
2022-12-17T21:53:42.722Z,56.87
2022-12-17T21:56:15.122Z,52.00
2022-12-17T21:58:42.655Z,53.93
2022-12-17T22:01:24.971Z,50.90
2022-12-17T22:03:53.894Z,51.33
2022-12-17T22:06:24.473Z,49.47
2022-12-17T22:08:56.811Z,51.37
2022-12-17T22:11:27.687Z,51.93
2022-12-17T22:14:08.835Z,48.93
2022-12-17T22:16:35.940Z,51.73
2022-12-17T22:19:03.892Z,47.90
2022-12-17T22:21:34.143Z,57.43
2022-12-17T22:24:00.968Z,50.83
2022-12-17T22:26:27.870Z,57.43
2022-12-17T22:28:54.345Z,55.47
2022-12-17T22:31:39.757Z,49.10
2022-12-17T22:35:23.151Z,50.77
2022-12-17T22:39:04.779Z,52.20
2022-12-17T22:43:52.440Z,52.73
2022-12-17T22:44:43.457Z,46.00
2022-12-17T22:45:32.932Z,47.33
2022-12-17T22:47:59.452Z,49.43
2022-12-17T22:50:28.163Z,44.27
2022-12-17T22:52:59.245Z,51.83
2022-12-17T22:55:25.786Z,44.90
2022-12-17T22:57:53.850Z,54.37
2022-12-17T23:00:26.140Z,55.13
2022-12-17T23:02:54.480Z,50.20
2022-12-17T23:05:25.514Z,49.77
2022-12-17T23:07:52.191Z,48.43
2022-12-17T23:10:19.193Z,51.57
2022-12-17T23:12:52.311Z,48.30
2022-12-17T23:15:27.363Z,51.27
2022-12-17T23:17:56.365Z,59.60
2022-12-17T23:20:23.021Z,49.53
2022-12-17T23:22:49.724Z,52.97
2022-12-17T23:25:16.465Z,53.97
2022-12-17T23:27:44.086Z,46.73
2022-12-17T23:30:12.115Z,52.07
2022-12-17T23:32:38.744Z,47.30
2022-12-17T23:35:05.882Z,50.47
2022-12-17T23:37:36.676Z,46.47
2022-12-17T23:40:08.021Z,49.13
2022-12-17T23:42:34.419Z,55.67
2022-12-17T23:45:00.812Z,54.63
2022-12-17T23:47:27.255Z,46.57
2022-12-17T23:49:53.841Z,52.53
2022-12-17T23:52:20.340Z,42.30
2022-12-17T23:54:46.720Z,51.60
2022-12-17T23:57:13.200Z,47.07
2022-12-17T23:59:39.751Z,45.00
